sensor_id;sensor_type;location;lat;lon;timestamp;P1;durP1;ratioP1;P2;durP2;ratioP2
59486;SDS011;45298;54.918;73.504;2023-02-28T00:01:54;20.35;;;6.57;;
59486;SDS011;45298;54.918;73.504;2023-02-28T00:04:23;16.10;;;6.38;;
59486;SDS011;45298;54.918;73.504;2023-02-28T00:06:52;12.18;;;5.28;;
59486;SDS011;45298;54.918;73.504;2023-02-28T00:09:21;13.02;;;5.55;;
59486;SDS011;45298;54.918;73.504;2023-02-28T00:11:50;12.43;;;5.97;;
59486;SDS011;45298;54.918;73.504;2023-02-28T00:14:19;12.40;;;5.60;;
59486;SDS011;45298;54.918;73.504;2023-02-28T00:16:48;14.10;;;4.82;;
59486;SDS011;45298;54.918;73.504;2023-02-28T00:19:16;15.00;;;5.32;;
59486;SDS011;45298;54.918;73.504;2023-02-28T00:21:45;13.70;;;5.63;;
59486;SDS011;45298;54.918;73.504;2023-02-28T00:24:14;15.25;;;6.10;;
59486;SDS011;45298;54.918;73.504;2023-02-28T00:26:43;14.73;;;6.18;;
59486;SDS011;45298;54.918;73.504;2023-02-28T00:29:12;15.57;;;5.53;;
59486;SDS011;45298;54.918;73.504;2023-02-28T00:31:40;13.93;;;6.07;;
59486;SDS011;45298;54.918;73.504;2023-02-28T00:34:10;13.75;;;5.90;;
59486;SDS011;45298;54.918;73.504;2023-02-28T00:36:39;11.57;;;5.65;;
59486;SDS011;45298;54.918;73.504;2023-02-28T00:39:11;13.18;;;5.35;;
59486;SDS011;45298;54.918;73.504;2023-02-28T00:41:40;14.23;;;5.97;;
59486;SDS011;45298;54.918;73.504;2023-02-28T00:44:09;15.45;;;6.38;;
59486;SDS011;45298;54.918;73.504;2023-02-28T00:46:38;13.45;;;5.43;;
59486;SDS011;45298;54.918;73.504;2023-02-28T00:49:07;12.48;;;5.57;;
59486;SDS011;45298;54.918;73.504;2023-02-28T00:51:36;13.13;;;5.18;;
59486;SDS011;45298;54.918;73.504;2023-02-28T00:54:05;13.27;;;5.90;;
59486;SDS011;45298;54.918;73.504;2023-02-28T00:56:33;11.65;;;5.30;;
59486;SDS011;45298;54.918;73.504;2023-02-28T00:59:03;13.10;;;5.63;;
59486;SDS011;45298;54.918;73.504;2023-02-28T01:01:32;12.23;;;5.75;;
59486;SDS011;45298;54.918;73.504;2023-02-28T01:04:01;15.75;;;5.78;;
59486;SDS011;45298;54.918;73.504;2023-02-28T01:06:31;12.45;;;5.10;;
59486;SDS011;45298;54.918;73.504;2023-02-28T01:09:00;11.07;;;5.78;;
59486;SDS011;45298;54.918;73.504;2023-02-28T01:11:30;16.40;;;6.00;;
59486;SDS011;45298;54.918;73.504;2023-02-28T01:14:00;16.08;;;5.82;;
59486;SDS011;45298;54.918;73.504;2023-02-28T01:16:29;14.48;;;5.75;;
59486;SDS011;45298;54.918;73.504;2023-02-28T01:18:58;15.10;;;5.32;;
59486;SDS011;45298;54.918;73.504;2023-02-28T01:21:29;12.75;;;5.60;;
59486;SDS011;45298;54.918;73.504;2023-02-28T01:23:58;10.32;;;4.25;;
59486;SDS011;45298;54.918;73.504;2023-02-28T01:26:27;14.05;;;5.10;;
59486;SDS011;45298;54.918;73.504;2023-02-28T01:28:56;16.10;;;5.85;;
59486;SDS011;45298;54.918;73.504;2023-02-28T01:31:25;12.52;;;5.53;;
59486;SDS011;45298;54.918;73.504;2023-02-28T01:33:55;14.85;;;5.63;;
59486;SDS011;45298;54.918;73.504;2023-02-28T01:36:27;12.95;;;5.18;;
59486;SDS011;45298;54.918;73.504;2023-02-28T01:38:56;13.20;;;5.07;;
59486;SDS011;45298;54.918;73.504;2023-02-28T01:41:27;11.30;;;4.90;;
59486;SDS011;45298;54.918;73.504;2023-02-28T01:44:01;12.35;;;5.50;;
59486;SDS011;45298;54.918;73.504;2023-02-28T01:46:49;12.35;;;5.10;;
59486;SDS011;45298;54.918;73.504;2023-02-28T01:49:18;11.90;;;4.85;;
59486;SDS011;45298;54.918;73.504;2023-02-28T01:51:52;11.13;;;4.10;;
59486;SDS011;45298;54.918;73.504;2023-02-28T01:54:30;10.70;;;4.55;;
59486;SDS011;45298;54.918;73.504;2023-02-28T01:57:06;10.13;;;4.78;;
59486;SDS011;45298;54.918;73.504;2023-02-28T02:02:20;10.90;;;4.25;;
59486;SDS011;45298;54.918;73.504;2023-02-28T02:05:03;13.15;;;5.20;;
59486;SDS011;45298;54.918;73.504;2023-02-28T02:07:35;11.52;;;5.45;;
59486;SDS011;45298;54.918;73.504;2023-02-28T02:10:16;13.88;;;5.00;;
59486;SDS011;45298;54.918;73.504;2023-02-28T02:17:56;11.40;;;5.28;;
59486;SDS011;45298;54.918;73.504;2023-02-28T02:23:30;10.95;;;4.55;;
59486;SDS011;45298;54.918;73.504;2023-02-28T02:26:40;14.23;;;4.90;;
59486;SDS011;45298;54.918;73.504;2023-02-28T02:35:39;8.18;;;3.78;;
59486;SDS011;45298;54.918;73.504;2023-02-28T02:43:48;10.07;;;3.80;;
59486;SDS011;45298;54.918;73.504;2023-02-28T02:46:31;13.85;;;3.92;;
59486;SDS011;45298;54.918;73.504;2023-02-28T02:49:04;10.75;;;4.20;;
59486;SDS011;45298;54.918;73.504;2023-02-28T02:51:37;8.68;;;3.70;;
59486;SDS011;45298;54.918;73.504;2023-02-28T02:54:23;11.10;;;4.32;;
59486;SDS011;45298;54.918;73.504;2023-02-28T02:56:57;10.98;;;3.80;;
59486;SDS011;45298;54.918;73.504;2023-02-28T02:59:30;7.93;;;3.60;;
59486;SDS011;45298;54.918;73.504;2023-02-28T03:02:01;8.18;;;4.18;;
59486;SDS011;45298;54.918;73.504;2023-02-28T03:04:34;9.95;;;4.20;;
59486;SDS011;45298;54.918;73.504;2023-02-28T03:07:08;7.15;;;2.80;;
59486;SDS011;45298;54.918;73.504;2023-02-28T03:09:37;9.63;;;4.10;;
59486;SDS011;45298;54.918;73.504;2023-02-28T03:12:08;8.60;;;4.20;;
59486;SDS011;45298;54.918;73.504;2023-02-28T03:14:46;10.98;;;4.07;;
59486;SDS011;45298;54.918;73.504;2023-02-28T03:20:05;11.68;;;4.50;;
59486;SDS011;45298;54.918;73.504;2023-02-28T03:22:45;14.25;;;4.50;;
59486;SDS011;45298;54.918;73.504;2023-02-28T03:28:14;12.77;;;5.10;;
59486;SDS011;45298;54.918;73.504;2023-02-28T03:33:18;10.80;;;4.53;;
59486;SDS011;45298;54.918;73.504;2023-02-28T03:35:58;10.90;;;4.55;;
59486;SDS011;45298;54.918;73.504;2023-02-28T03:38:42;14.20;;;5.00;;
59486;SDS011;45298;54.918;73.504;2023-02-28T03:41:29;10.30;;;4.30;;
59486;SDS011;45298;54.918;73.504;2023-02-28T03:44:06;11.07;;;4.47;;
59486;SDS011;45298;54.918;73.504;2023-02-28T03:47:28;9.90;;;4.35;;
59486;SDS011;45298;54.918;73.504;2023-02-28T03:49:48;12.25;;;4.60;;
59486;SDS011;45298;54.918;73.504;2023-02-28T03:52:25;9.77;;;4.70;;
59486;SDS011;45298;54.918;73.504;2023-02-28T03:54:59;9.77;;;4.85;;
59486;SDS011;45298;54.918;73.504;2023-02-28T04:00:13;14.27;;;5.38;;
59486;SDS011;45298;54.918;73.504;2023-02-28T04:02:47;11.70;;;4.82;;
59486;SDS011;45298;54.918;73.504;2023-02-28T04:05:20;15.53;;;5.07;;
59486;SDS011;45298;54.918;73.504;2023-02-28T04:07:50;11.88;;;4.78;;
59486;SDS011;45298;54.918;73.504;2023-02-28T04:10:19;10.13;;;4.80;;
59486;SDS011;45298;54.918;73.504;2023-02-28T04:12:51;8.65;;;4.07;;
59486;SDS011;45298;54.918;73.504;2023-02-28T04:15:20;12.65;;;4.82;;
59486;SDS011;45298;54.918;73.504;2023-02-28T04:17:53;13.57;;;5.47;;
59486;SDS011;45298;54.918;73.504;2023-02-28T04:20:22;14.20;;;5.00;;
59486;SDS011;45298;54.918;73.504;2023-02-28T04:22:50;12.27;;;5.20;;
59486;SDS011;45298;54.918;73.504;2023-02-28T04:25:19;11.90;;;5.35;;
59486;SDS011;45298;54.918;73.504;2023-02-28T04:27:49;9.80;;;4.80;;
59486;SDS011;45298;54.918;73.504;2023-02-28T04:30:18;10.55;;;4.47;;
59486;SDS011;45298;54.918;73.504;2023-02-28T04:32:47;10.98;;;4.90;;
59486;SDS011;45298;54.918;73.504;2023-02-28T04:35:15;13.85;;;4.65;;
59486;SDS011;45298;54.918;73.504;2023-02-28T04:37:44;13.52;;;4.53;;
59486;SDS011;45298;54.918;73.504;2023-02-28T04:40:13;12.13;;;4.60;;
59486;SDS011;45298;54.918;73.504;2023-02-28T04:42:42;12.35;;;5.07;;
59486;SDS011;45298;54.918;73.504;2023-02-28T04:45:11;11.52;;;4.80;;
59486;SDS011;45298;54.918;73.504;2023-02-28T04:47:40;12.35;;;4.93;;
59486;SDS011;45298;54.918;73.504;2023-02-28T04:50:09;11.02;;;4.63;;
59486;SDS011;45298;54.918;73.504;2023-02-28T04:52:38;10.93;;;4.57;;
59486;SDS011;45298;54.918;73.504;2023-02-28T04:55:07;13.05;;;4.95;;
59486;SDS011;45298;54.918;73.504;2023-02-28T04:57:36;10.82;;;3.92;;
59486;SDS011;45298;54.918;73.504;2023-02-28T05:00:10;9.80;;;4.85;;
59486;SDS011;45298;54.918;73.504;2023-02-28T05:02:40;10.88;;;4.55;;
59486;SDS011;45298;54.918;73.504;2023-02-28T05:05:09;11.70;;;4.57;;
59486;SDS011;45298;54.918;73.504;2023-02-28T05:07:40;11.48;;;4.60;;
59486;SDS011;45298;54.918;73.504;2023-02-28T05:10:09;16.10;;;5.25;;
59486;SDS011;45298;54.918;73.504;2023-02-28T05:12:38;12.75;;;5.13;;
59486;SDS011;45298;54.918;73.504;2023-02-28T05:15:08;11.18;;;4.97;;
59486;SDS011;45298;54.918;73.504;2023-02-28T05:17:41;11.50;;;4.45;;
59486;SDS011;45298;54.918;73.504;2023-02-28T05:20:11;10.57;;;4.50;;
59486;SDS011;45298;54.918;73.504;2023-02-28T05:22:45;13.43;;;5.50;;
59486;SDS011;45298;54.918;73.504;2023-02-28T05:25:18;9.90;;;4.40;;
59486;SDS011;45298;54.918;73.504;2023-02-28T05:27:49;9.32;;;4.30;;
59486;SDS011;45298;54.918;73.504;2023-02-28T05:30:18;10.57;;;4.50;;
59486;SDS011;45298;54.918;73.504;2023-02-28T05:32:49;13.45;;;5.13;;
59486;SDS011;45298;54.918;73.504;2023-02-28T05:35:19;10.75;;;4.40;;
59486;SDS011;45298;54.918;73.504;2023-02-28T05:37:48;10.15;;;5.07;;
59486;SDS011;45298;54.918;73.504;2023-02-28T05:40:17;10.75;;;4.30;;
59486;SDS011;45298;54.918;73.504;2023-02-28T05:42:51;10.45;;;5.13;;
59486;SDS011;45298;54.918;73.504;2023-02-28T05:45:20;11.30;;;5.00;;
59486;SDS011;45298;54.918;73.504;2023-02-28T05:47:48;9.77;;;4.53;;
59486;SDS011;45298;54.918;73.504;2023-02-28T05:50:21;11.45;;;5.10;;
59486;SDS011;45298;54.918;73.504;2023-02-28T05:52:50;10.98;;;4.97;;
59486;SDS011;45298;54.918;73.504;2023-02-28T05:55:20;11.90;;;5.88;;
59486;SDS011;45298;54.918;73.504;2023-02-28T05:57:50;9.90;;;4.88;;
59486;SDS011;45298;54.918;73.504;2023-02-28T06:00:19;10.63;;;4.53;;
59486;SDS011;45298;54.918;73.504;2023-02-28T06:02:48;11.38;;;5.82;;
59486;SDS011;45298;54.918;73.504;2023-02-28T06:05:17;16.17;;;7.15;;
59486;SDS011;45298;54.918;73.504;2023-02-28T06:07:46;12.75;;;5.63;;
59486;SDS011;45298;54.918;73.504;2023-02-28T06:10:15;13.48;;;5.93;;
59486;SDS011;45298;54.918;73.504;2023-02-28T06:12:44;12.43;;;5.03;;
59486;SDS011;45298;54.918;73.504;2023-02-28T06:15:13;14.95;;;6.28;;
59486;SDS011;45298;54.918;73.504;2023-02-28T06:17:44;11.80;;;6.20;;
59486;SDS011;45298;54.918;73.504;2023-02-28T06:20:13;11.60;;;5.43;;
59486;SDS011;45298;54.918;73.504;2023-02-28T06:22:42;14.85;;;6.45;;
59486;SDS011;45298;54.918;73.504;2023-02-28T06:25:11;15.85;;;5.82;;
59486;SDS011;45298;54.918;73.504;2023-02-28T06:27:39;12.43;;;5.88;;
59486;SDS011;45298;54.918;73.504;2023-02-28T06:30:09;11.90;;;6.03;;
59486;SDS011;45298;54.918;73.504;2023-02-28T06:32:39;9.73;;;4.78;;
59486;SDS011;45298;54.918;73.504;2023-02-28T06:35:08;11.35;;;5.35;;
59486;SDS011;45298;54.918;73.504;2023-02-28T06:37:37;12.45;;;5.65;;
59486;SDS011;45298;54.918;73.504;2023-02-28T06:40:08;16.45;;;5.57;;
59486;SDS011;45298;54.918;73.504;2023-02-28T06:42:38;16.35;;;5.82;;
59486;SDS011;45298;54.918;73.504;2023-02-28T06:45:07;12.23;;;5.53;;
59486;SDS011;45298;54.918;73.504;2023-02-28T06:47:37;11.27;;;4.93;;
59486;SDS011;45298;54.918;73.504;2023-02-28T06:50:08;12.30;;;5.90;;
59486;SDS011;45298;54.918;73.504;2023-02-28T06:52:39;11.48;;;5.47;;
59486;SDS011;45298;54.918;73.504;2023-02-28T06:55:08;14.38;;;5.32;;
59486;SDS011;45298;54.918;73.504;2023-02-28T06:57:37;12.95;;;5.03;;
59486;SDS011;45298;54.918;73.504;2023-02-28T07:00:07;14.05;;;5.80;;
59486;SDS011;45298;54.918;73.504;2023-02-28T07:02:38;14.43;;;6.13;;
59486;SDS011;45298;54.918;73.504;2023-02-28T07:05:07;13.00;;;5.57;;
59486;SDS011;45298;54.918;73.504;2023-02-28T07:07:36;12.43;;;5.22;;
59486;SDS011;45298;54.918;73.504;2023-02-28T07:10:09;11.38;;;4.88;;
59486;SDS011;45298;54.918;73.504;2023-02-28T07:12:39;13.07;;;5.22;;
59486;SDS011;45298;54.918;73.504;2023-02-28T07:15:08;12.63;;;5.15;;
59486;SDS011;45298;54.918;73.504;2023-02-28T07:17:37;15.90;;;4.78;;
59486;SDS011;45298;54.918;73.504;2023-02-28T07:20:06;11.35;;;5.20;;
59486;SDS011;45298;54.918;73.504;2023-02-28T07:22:36;11.30;;;5.47;;
59486;SDS011;45298;54.918;73.504;2023-02-28T07:25:09;14.95;;;5.65;;
59486;SDS011;45298;54.918;73.504;2023-02-28T07:27:38;15.75;;;5.88;;
59486;SDS011;45298;54.918;73.504;2023-02-28T07:30:08;12.43;;;5.53;;
59486;SDS011;45298;54.918;73.504;2023-02-28T07:32:37;12.23;;;5.85;;
59486;SDS011;45298;54.918;73.504;2023-02-28T07:35:09;11.93;;;5.45;;
59486;SDS011;45298;54.918;73.504;2023-02-28T07:37:38;11.48;;;5.03;;
59486;SDS011;45298;54.918;73.504;2023-02-28T07:40:07;12.98;;;5.50;;
59486;SDS011;45298;54.918;73.504;2023-02-28T07:45:10;14.95;;;5.95;;
59486;SDS011;45298;54.918;73.504;2023-02-28T07:47:40;20.20;;;6.53;;
59486;SDS011;45298;54.918;73.504;2023-02-28T07:50:11;13.30;;;5.45;;
59486;SDS011;45298;54.918;73.504;2023-02-28T07:52:42;15.52;;;5.03;;
59486;SDS011;45298;54.918;73.504;2023-02-28T07:55:11;14.43;;;6.00;;
59486;SDS011;45298;54.918;73.504;2023-02-28T07:57:40;14.10;;;6.03;;
59486;SDS011;45298;54.918;73.504;2023-02-28T08:00:10;13.40;;;5.90;;
59486;SDS011;45298;54.918;73.504;2023-02-28T08:02:40;11.57;;;5.90;;
59486;SDS011;45298;54.918;73.504;2023-02-28T08:05:10;11.98;;;5.60;;
59486;SDS011;45298;54.918;73.504;2023-02-28T08:07:42;14.82;;;6.35;;
59486;SDS011;45298;54.918;73.504;2023-02-28T08:10:11;13.60;;;5.82;;
59486;SDS011;45298;54.918;73.504;2023-02-28T08:12:42;12.13;;;5.63;;
59486;SDS011;45298;54.918;73.504;2023-02-28T08:15:11;14.30;;;5.80;;
59486;SDS011;45298;54.918;73.504;2023-02-28T08:17:40;12.10;;;5.40;;
59486;SDS011;45298;54.918;73.504;2023-02-28T08:20:09;11.82;;;5.70;;
59486;SDS011;45298;54.918;73.504;2023-02-28T08:22:38;15.45;;;6.38;;
59486;SDS011;45298;54.918;73.504;2023-02-28T08:25:07;13.13;;;5.82;;
59486;SDS011;45298;54.918;73.504;2023-02-28T08:27:38;13.82;;;6.25;;
59486;SDS011;45298;54.918;73.504;2023-02-28T08:30:09;12.32;;;6.13;;
59486;SDS011;45298;54.918;73.504;2023-02-28T08:32:43;13.07;;;5.93;;
59486;SDS011;45298;54.918;73.504;2023-02-28T08:35:12;14.85;;;6.00;;
59486;SDS011;45298;54.918;73.504;2023-02-28T08:37:41;13.57;;;5.70;;
59486;SDS011;45298;54.918;73.504;2023-02-28T08:40:11;15.63;;;5.85;;
59486;SDS011;45298;54.918;73.504;2023-02-28T08:42:46;14.18;;;6.65;;
59486;SDS011;45298;54.918;73.504;2023-02-28T08:45:15;19.05;;;6.57;;
59486;SDS011;45298;54.918;73.504;2023-02-28T08:47:44;15.65;;;5.50;;
59486;SDS011;45298;54.918;73.504;2023-02-28T08:50:12;15.10;;;6.22;;
59486;SDS011;45298;54.918;73.504;2023-02-28T08:52:42;13.60;;;6.13;;
59486;SDS011;45298;54.918;73.504;2023-02-28T08:55:11;13.63;;;5.35;;
59486;SDS011;45298;54.918;73.504;2023-02-28T08:57:40;16.48;;;6.25;;
59486;SDS011;45298;54.918;73.504;2023-02-28T09:00:09;16.45;;;6.38;;
59486;SDS011;45298;54.918;73.504;2023-02-28T09:02:41;17.25;;;6.22;;
59486;SDS011;45298;54.918;73.504;2023-02-28T09:05:12;17.70;;;6.32;;
59486;SDS011;45298;54.918;73.504;2023-02-28T09:07:41;17.02;;;7.25;;
59486;SDS011;45298;54.918;73.504;2023-02-28T09:10:10;17.88;;;6.80;;
59486;SDS011;45298;54.918;73.504;2023-02-28T09:12:39;16.48;;;6.15;;
59486;SDS011;45298;54.918;73.504;2023-02-28T09:15:08;14.70;;;6.72;;
59486;SDS011;45298;54.918;73.504;2023-02-28T09:17:37;15.30;;;6.47;;
59486;SDS011;45298;54.918;73.504;2023-02-28T09:20:06;18.17;;;6.53;;
59486;SDS011;45298;54.918;73.504;2023-02-28T09:22:36;19.65;;;7.63;;
59486;SDS011;45298;54.918;73.504;2023-02-28T09:25:05;14.85;;;6.47;;
59486;SDS011;45298;54.918;73.504;2023-02-28T09:27:34;17.10;;;6.60;;
59486;SDS011;45298;54.918;73.504;2023-02-28T09:30:05;16.42;;;6.57;;
59486;SDS011;45298;54.918;73.504;2023-02-28T09:32:34;13.93;;;6.45;;
59486;SDS011;45298;54.918;73.504;2023-02-28T09:35:03;12.75;;;6.22;;
59486;SDS011;45298;54.918;73.504;2023-02-28T09:37:33;16.15;;;6.47;;
59486;SDS011;45298;54.918;73.504;2023-02-28T09:40:02;14.45;;;6.93;;
59486;SDS011;45298;54.918;73.504;2023-02-28T09:42:32;18.30;;;7.10;;
59486;SDS011;45298;54.918;73.504;2023-02-28T09:45:03;15.18;;;6.25;;
59486;SDS011;45298;54.918;73.504;2023-02-28T09:47:58;13.88;;;5.90;;
59486;SDS011;45298;54.918;73.504;2023-02-28T09:53:49;17.05;;;7.70;;
59486;SDS011;45298;54.918;73.504;2023-02-28T09:56:11;16.90;;;7.10;;
59486;SDS011;45298;54.918;73.504;2023-02-28T09:59:13;16.25;;;6.93;;
59486;SDS011;45298;54.918;73.504;2023-02-28T10:05:05;17.15;;;7.57;;
59486;SDS011;45298;54.918;73.504;2023-02-28T10:10:32;16.90;;;7.45;;
59486;SDS011;45298;54.918;73.504;2023-02-28T10:15:49;17.80;;;7.43;;
59486;SDS011;45298;54.918;73.504;2023-02-28T10:18:24;17.60;;;7.90;;
59486;SDS011;45298;54.918;73.504;2023-02-28T10:20:58;15.88;;;7.78;;
59486;SDS011;45298;54.918;73.504;2023-02-28T10:23:31;18.50;;;8.00;;
59486;SDS011;45298;54.918;73.504;2023-02-28T10:26:13;17.80;;;7.50;;
59486;SDS011;45298;54.918;73.504;2023-02-28T10:28:45;17.25;;;6.68;;
59486;SDS011;45298;54.918;73.504;2023-02-28T10:31:15;16.55;;;7.65;;
59486;SDS011;45298;54.918;73.504;2023-02-28T10:33:48;16.30;;;7.45;;
59486;SDS011;45298;54.918;73.504;2023-02-28T10:36:18;13.13;;;6.22;;
59486;SDS011;45298;54.918;73.504;2023-02-28T10:38:49;15.55;;;7.25;;
59486;SDS011;45298;54.918;73.504;2023-02-28T10:41:27;15.45;;;7.55;;
59486;SDS011;45298;54.918;73.504;2023-02-28T10:44:14;16.05;;;7.20;;
59486;SDS011;45298;54.918;73.504;2023-02-28T10:46:48;16.40;;;7.97;;
59486;SDS011;45298;54.918;73.504;2023-02-28T10:49:23;15.65;;;6.82;;
59486;SDS011;45298;54.918;73.504;2023-02-28T10:54:34;16.77;;;7.28;;
59486;SDS011;45298;54.918;73.504;2023-02-28T11:00:05;19.52;;;8.48;;
59486;SDS011;45298;54.918;73.504;2023-02-28T11:02:42;15.35;;;7.70;;
59486;SDS011;45298;54.918;73.504;2023-02-28T11:08:16;17.35;;;8.50;;
59486;SDS011;45298;54.918;73.504;2023-02-28T11:10:47;17.77;;;8.40;;
59486;SDS011;45298;54.918;73.504;2023-02-28T11:13:29;21.27;;;8.93;;
59486;SDS011;45298;54.918;73.504;2023-02-28T11:16:04;20.40;;;8.80;;
59486;SDS011;45298;54.918;73.504;2023-02-28T11:24:01;19.90;;;8.50;;
59486;SDS011;45298;54.918;73.504;2023-02-28T11:26:43;23.90;;;8.90;;
59486;SDS011;45298;54.918;73.504;2023-02-28T11:32:07;17.77;;;8.50;;
59486;SDS011;45298;54.918;73.504;2023-02-28T11:34:39;19.20;;;9.32;;
59486;SDS011;45298;54.918;73.504;2023-02-28T11:37:16;17.90;;;8.73;;
59486;SDS011;45298;54.918;73.504;2023-02-28T11:39:47;19.33;;;9.95;;
59486;SDS011;45298;54.918;73.504;2023-02-28T11:48:18;18.80;;;8.95;;
59486;SDS011;45298;54.918;73.504;2023-02-28T11:50:54;17.52;;;8.43;;
59486;SDS011;45298;54.918;73.504;2023-02-28T11:56:38;22.50;;;9.38;;
59486;SDS011;45298;54.918;73.504;2023-02-28T12:10:26;18.25;;;8.57;;
59486;SDS011;45298;54.918;73.504;2023-02-28T12:13:23;20.85;;;9.25;;
59486;SDS011;45298;54.918;73.504;2023-02-28T12:18:39;17.92;;;8.68;;
59486;SDS011;45298;54.918;73.504;2023-02-28T12:26:47;18.98;;;8.45;;
59486;SDS011;45298;54.918;73.504;2023-02-28T12:29:28;18.10;;;8.48;;
59486;SDS011;45298;54.918;73.504;2023-02-28T12:37:40;18.08;;;8.73;;
59486;SDS011;45298;54.918;73.504;2023-02-28T12:40:19;23.35;;;9.82;;
59486;SDS011;45298;54.918;73.504;2023-02-28T12:43:02;18.45;;;8.43;;
59486;SDS011;45298;54.918;73.504;2023-02-28T12:45:45;17.05;;;8.18;;
59486;SDS011;45298;54.918;73.504;2023-02-28T12:48:24;18.85;;;8.25;;
59486;SDS011;45298;54.918;73.504;2023-02-28T12:50:59;14.70;;;7.55;;
59486;SDS011;45298;54.918;73.504;2023-02-28T12:53:42;14.35;;;7.20;;
59486;SDS011;45298;54.918;73.504;2023-02-28T12:56:35;18.90;;;7.63;;
59486;SDS011;45298;54.918;73.504;2023-02-28T12:59:27;23.42;;;9.70;;
59486;SDS011;45298;54.918;73.504;2023-02-28T13:10:46;19.92;;;9.45;;
59486;SDS011;45298;54.918;73.504;2023-02-28T13:13:25;19.98;;;9.38;;
59486;SDS011;45298;54.918;73.504;2023-02-28T13:16:15;19.00;;;8.60;;
59486;SDS011;45298;54.918;73.504;2023-02-28T13:18:45;16.58;;;8.05;;
59486;SDS011;45298;54.918;73.504;2023-02-28T13:21:22;19.48;;;8.63;;
59486;SDS011;45298;54.918;73.504;2023-02-28T13:24:03;16.95;;;8.40;;
59486;SDS011;45298;54.918;73.504;2023-02-28T13:34:38;18.90;;;8.05;;
59486;SDS011;45298;54.918;73.504;2023-02-28T13:47:44;16.90;;;8.38;;
59486;SDS011;45298;54.918;73.504;2023-02-28T14:11:44;19.75;;;8.60;;
59486;SDS011;45298;54.918;73.504;2023-02-28T14:17:14;20.27;;;9.85;;
59486;SDS011;45298;54.918;73.504;2023-02-28T14:19:45;33.70;;;15.30;;
59486;SDS011;45298;54.918;73.504;2023-02-28T14:31:00;22.02;;;10.55;;
59486;SDS011;45298;54.918;73.504;2023-02-28T14:36:10;48.45;;;27.00;;
59486;SDS011;45298;54.918;73.504;2023-02-28T14:39:04;25.33;;;11.32;;
59486;SDS011;45298;54.918;73.504;2023-02-28T14:41:42;18.40;;;8.85;;
59486;SDS011;45298;54.918;73.504;2023-02-28T14:44:22;17.55;;;8.25;;
59486;SDS011;45298;54.918;73.504;2023-02-28T14:46:54;19.50;;;9.13;;
59486;SDS011;45298;54.918;73.504;2023-02-28T14:49:32;21.23;;;9.60;;
59486;SDS011;45298;54.918;73.504;2023-02-28T14:54:43;19.45;;;10.15;;
59486;SDS011;45298;54.918;73.504;2023-02-28T14:57:34;18.10;;;8.95;;
59486;SDS011;45298;54.918;73.504;2023-02-28T15:00:14;20.55;;;9.80;;
59486;SDS011;45298;54.918;73.504;2023-02-28T15:02:43;20.98;;;10.20;;
59486;SDS011;45298;54.918;73.504;2023-02-28T15:07:40;20.60;;;9.45;;
59486;SDS011;45298;54.918;73.504;2023-02-28T15:10:10;18.70;;;9.25;;
59486;SDS011;45298;54.918;73.504;2023-02-28T15:12:56;21.30;;;9.95;;
59486;SDS011;45298;54.918;73.504;2023-02-28T15:15:45;19.40;;;9.00;;
59486;SDS011;45298;54.918;73.504;2023-02-28T15:18:40;19.58;;;9.50;;
59486;SDS011;45298;54.918;73.504;2023-02-28T15:21:25;23.13;;;9.77;;
59486;SDS011;45298;54.918;73.504;2023-02-28T15:24:04;20.00;;;9.80;;
59486;SDS011;45298;54.918;73.504;2023-02-28T15:26:38;21.00;;;9.52;;
59486;SDS011;45298;54.918;73.504;2023-02-28T15:29:16;21.42;;;9.32;;
59486;SDS011;45298;54.918;73.504;2023-02-28T15:31:52;16.98;;;7.35;;
59486;SDS011;45298;54.918;73.504;2023-02-28T15:34:34;21.45;;;9.98;;
59486;SDS011;45298;54.918;73.504;2023-02-28T15:42:58;23.10;;;10.43;;
59486;SDS011;45298;54.918;73.504;2023-02-28T15:45:39;33.50;;;15.45;;
59486;SDS011;45298;54.918;73.504;2023-02-28T15:48:14;22.73;;;10.43;;
59486;SDS011;45298;54.918;73.504;2023-02-28T15:51:01;124.88;;;36.38;;
59486;SDS011;45298;54.918;73.504;2023-02-28T15:54:17;21.67;;;9.98;;
59486;SDS011;45298;54.918;73.504;2023-02-28T15:56:32;25.58;;;9.88;;
59486;SDS011;45298;54.918;73.504;2023-02-28T15:59:06;24.67;;;10.63;;
59486;SDS011;45298;54.918;73.504;2023-02-28T16:01:42;21.25;;;9.32;;
59486;SDS011;45298;54.918;73.504;2023-02-28T16:04:13;20.17;;;9.57;;
59486;SDS011;45298;54.918;73.504;2023-02-28T16:09:41;20.30;;;9.73;;
59486;SDS011;45298;54.918;73.504;2023-02-28T16:12:11;20.15;;;8.98;;
59486;SDS011;45298;54.918;73.504;2023-02-28T16:14:43;21.40;;;10.45;;
59486;SDS011;45298;54.918;73.504;2023-02-28T16:17:16;21.80;;;9.63;;
59486;SDS011;45298;54.918;73.504;2023-02-28T16:19:55;24.48;;;10.77;;
59486;SDS011;45298;54.918;73.504;2023-02-28T16:22:26;26.73;;;12.38;;
59486;SDS011;45298;54.918;73.504;2023-02-28T16:24:55;25.23;;;11.00;;
59486;SDS011;45298;54.918;73.504;2023-02-28T16:27:28;26.77;;;11.52;;
59486;SDS011;45298;54.918;73.504;2023-02-28T16:30:01;20.70;;;9.93;;
59486;SDS011;45298;54.918;73.504;2023-02-28T16:32:32;21.10;;;10.23;;
59486;SDS011;45298;54.918;73.504;2023-02-28T16:35:05;26.50;;;11.38;;
59486;SDS011;45298;54.918;73.504;2023-02-28T16:37:38;20.98;;;9.98;;
59486;SDS011;45298;54.918;73.504;2023-02-28T16:40:09;20.23;;;9.90;;
59486;SDS011;45298;54.918;73.504;2023-02-28T16:42:45;22.48;;;9.98;;
59486;SDS011;45298;54.918;73.504;2023-02-28T16:45:17;20.77;;;10.10;;
59486;SDS011;45298;54.918;73.504;2023-02-28T16:47:48;22.77;;;10.40;;
59486;SDS011;45298;54.918;73.504;2023-02-28T16:50:25;23.67;;;10.85;;
59486;SDS011;45298;54.918;73.504;2023-02-28T16:52:56;20.20;;;9.45;;
59486;SDS011;45298;54.918;73.504;2023-02-28T16:55:25;20.45;;;9.77;;
59486;SDS011;45298;54.918;73.504;2023-02-28T16:57:57;22.42;;;9.50;;
59486;SDS011;45298;54.918;73.504;2023-02-28T17:00:28;23.10;;;10.20;;
59486;SDS011;45298;54.918;73.504;2023-02-28T17:02:59;28.23;;;10.90;;
59486;SDS011;45298;54.918;73.504;2023-02-28T17:05:33;22.23;;;9.88;;
59486;SDS011;45298;54.918;73.504;2023-02-28T17:08:08;23.42;;;9.88;;
59486;SDS011;45298;54.918;73.504;2023-02-28T17:10:37;23.70;;;10.07;;
59486;SDS011;45298;54.918;73.504;2023-02-28T17:13:06;19.17;;;9.43;;
59486;SDS011;45298;54.918;73.504;2023-02-28T17:15:41;20.98;;;9.80;;
59486;SDS011;45298;54.918;73.504;2023-02-28T17:18:15;20.35;;;9.75;;
59486;SDS011;45298;54.918;73.504;2023-02-28T17:20:46;20.95;;;10.07;;
59486;SDS011;45298;54.918;73.504;2023-02-28T17:23:16;25.75;;;10.45;;
59486;SDS011;45298;54.918;73.504;2023-02-28T17:25:45;24.05;;;10.05;;
59486;SDS011;45298;54.918;73.504;2023-02-28T17:28:24;22.48;;;9.98;;
59486;SDS011;45298;54.918;73.504;2023-02-28T17:30:53;20.02;;;9.82;;
59486;SDS011;45298;54.918;73.504;2023-02-28T17:33:22;22.88;;;10.57;;
59486;SDS011;45298;54.918;73.504;2023-02-28T17:35:51;19.92;;;10.15;;
59486;SDS011;45298;54.918;73.504;2023-02-28T17:38:20;23.10;;;9.88;;
59486;SDS011;45298;54.918;73.504;2023-02-28T17:40:51;20.30;;;9.50;;
59486;SDS011;45298;54.918;73.504;2023-02-28T17:43:28;20.70;;;9.60;;
59486;SDS011;45298;54.918;73.504;2023-02-28T17:45:57;20.70;;;10.05;;
59486;SDS011;45298;54.918;73.504;2023-02-28T17:48:29;23.00;;;10.00;;
59486;SDS011;45298;54.918;73.504;2023-02-28T17:50:59;19.63;;;9.65;;